Time;durP1;ratioP1;P1;durP2;ratioP2;P2;SDS_P1;SDS_P2;PMS_P1;PMS_P2;Temp;Humidity;BMP_temperature;BMP_pressure;BME280_temperature;BME280_humidity;BME280_pressure;Samples;Min_cycle;Max_cycle;Signal;HPM_P1;HPM_P2
2023/10/29 00:02:12;;;;;;;1.63;0.50;;;;;;;15.10;98.60;98738.94;5074461;28;20055;-63
2023/10/29 00:04:40;;;;;;;1.63;0.60;;;;;;;14.90;98.59;98723.81;5073455;28;20048;-63
2023/10/29 00:07:08;;;;;;;1.45;0.50;;;;;;;14.99;99.88;98727.03;5056916;28;20655;-56
2023/10/29 00:09:35;;;;;;;3.97;0.65;;;;;;;15.07;99.87;98734.19;5069301;28;20049;-62
2023/10/29 00:12:02;;;;;;;2.50;0.60;;;;;;;15.10;99.65;98721.53;5067443;28;20162;-62
2023/10/29 00:14:30;;;;;;;2.80;0.75;;;;;;;15.21;99.68;98698.16;5072213;28;20494;-63
2023/10/29 00:16:58;;;;;;;4.00;0.80;;;;;;;14.97;100.00;98693.34;5067186;28;20053;-63
2023/10/29 00:19:26;;;;;;;2.47;0.70;;;;;;;15.00;100.00;98702.84;5051942;28;20079;-61
2023/10/29 00:21:53;;;;;;;2.90;0.75;;;;;;;14.89;100.00;98702.81;5057555;28;20036;-62
2023/10/29 00:24:22;;;;;;;3.75;0.82;;;;;;;15.07;100.00;98692.59;5073793;28;20055;-62
2023/10/29 00:26:50;;;;;;;4.35;0.90;;;;;;;15.08;100.00;98701.69;5071269;28;20154;-63
2023/10/29 00:29:17;;;;;;;5.35;0.88;;;;;;;15.20;100.00;98704.88;5071348;28;20415;-61
2023/10/29 00:31:45;;;;;;;4.57;0.95;;;;;;;15.06;100.00;98701.28;5053161;28;20048;-62
2023/10/29 00:34:12;;;;;;;6.38;0.68;;;;;;;15.02;100.00;98667.22;5060054;28;20069;-62
2023/10/29 00:36:40;;;;;;;4.03;0.90;;;;;;;15.17;100.00;98675.16;5036183;28;20451;-62
2023/10/29 00:39:07;;;;;;;3.42;1.00;;;;;;;15.10;100.00;98696.56;5064937;28;20047;-55
2023/10/29 00:41:34;;;;;;;3.92;1.10;;;;;;;14.98;100.00;98686.59;5094687;28;20388;-58
2023/10/29 00:44:02;;;;;;;5.72;1.50;;;;;;;15.03;100.00;98675.13;5051665;28;20057;-63
2023/10/29 00:46:30;;;;;;;5.25;1.20;;;;;;;14.90;100.00;98679.47;5064420;28;20053;-62
2023/10/29 00:48:58;;;;;;;5.25;1.50;;;;;;;15.01;100.00;98668.41;5050854;28;20052;-62
2023/10/29 00:51:26;;;;;;;5.82;1.30;;;;;;;15.08;100.00;98649.03;5035692;28;20056;-62
2023/10/29 00:53:53;;;;;;;4.95;1.17;;;;;;;15.09;100.00;98665.25;5062169;28;20048;-63
2023/10/29 00:56:21;;;;;;;7.00;1.20;;;;;;;15.16;100.00;98662.50;5072237;28;20049;-62
2023/10/29 00:58:51;;;;;;;5.15;1.10;;;;;;;15.13;100.00;98663.25;5078482;28;20463;-62
2023/10/29 01:01:19;;;;;;;4.00;1.10;;;;;;;15.31;100.00;98666.06;5040955;28;20543;-56
2023/10/29 01:03:46;;;;;;;9.20;1.65;;;;;;;15.22;100.00;98682.31;5067691;28;20672;-56
2023/10/29 01:06:15;;;;;;;6.90;1.38;;;;;;;15.30;100.00;98687.50;5064977;28;20059;-54
2023/10/29 01:08:43;;;;;;;3.58;1.00;;;;;;;15.31;100.00;98679.94;5070473;28;20052;-55
2023/10/29 01:11:10;;;;;;;5.80;1.42;;;;;;;15.55;100.00;98696.66;5062975;28;20047;-56
2023/10/29 01:13:38;;;;;;;5.20;1.85;;;;;;;15.52;99.38;98705.78;5073658;28;20044;-57
2023/10/29 01:16:06;;;;;;;6.60;1.27;;;;;;;15.63;98.87;98712.13;5056269;28;20044;-55
2023/10/29 01:18:34;;;;;;;7.63;1.33;;;;;;;15.41;100.00;98712.50;5073107;28;20057;-55
2023/10/29 01:21:02;;;;;;;6.10;1.48;;;;;;;15.67;98.81;98696.25;5073826;28;20056;-55
2023/10/29 01:23:30;;;;;;;7.28;1.33;;;;;;;15.37;99.15;98717.22;5089373;28;20655;-62
2023/10/29 01:25:58;;;;;;;8.80;1.67;;;;;;;15.49;99.52;98706.56;5072165;28;20514;-62
2023/10/29 01:28:25;;;;;;;8.88;2.10;;;;;;;15.44;100.00;98711.72;5042089;28;20048;-57
2023/10/29 01:30:53;;;;;;;12.80;1.83;;;;;;;15.33;100.00;98725.53;5072037;28;20513;-54
2023/10/29 01:33:20;;;;;;;7.20;1.58;;;;;;;15.53;100.00;98726.78;5072458;28;20053;-54
2023/10/29 01:35:48;;;;;;;9.60;1.27;;;;;;;15.37;100.00;98734.66;5072876;28;20075;-57
2023/10/29 01:38:18;;;;;;;13.18;1.98;;;;;;;15.60;99.94;98732.34;5072719;28;20065;-53
2023/10/29 01:40:45;;;;;;;12.48;1.92;;;;;;;15.53;99.41;98743.41;5090273;28;20687;-56
2023/10/29 01:43:12;;;;;;;11.02;1.65;;;;;;;15.52;99.48;98749.38;5073543;28;20049;-54
2023/10/29 01:45:40;;;;;;;9.13;1.52;;;;;;;15.64;99.14;98758.13;5032211;28;20055;-62
2023/10/29 01:48:08;;;;;;;8.20;1.42;;;;;;;15.79;98.64;98743.06;5069664;28;20557;-62
2023/10/29 01:50:36;;;;;;;9.57;1.88;;;;;;;15.69;97.67;98738.28;5073020;28;20045;-55
2023/10/29 01:53:03;;;;;;;13.23;2.20;;;;;;;15.95;97.27;98747.44;5071394;28;20594;-55
2023/10/29 01:55:35;;;;;;;11.40;2.30;;;;;;;15.94;96.37;98756.94;5068414;28;20055;-59
2023/10/29 01:58:02;;;;;;;8.75;2.42;;;;;;;16.06;95.54;98751.78;5078169;28;20060;-58
2023/10/29 02:00:30;;;;;;;8.45;1.80;;;;;;;15.96;94.43;98755.38;5067531;28;20295;-57
2023/10/29 02:02:57;;;;;;;10.77;2.45;;;;;;;15.89;94.07;98776.78;5057091;28;20072;-56
2023/10/29 02:05:24;;;;;;;15.15;2.28;;;;;;;15.70;94.88;98761.31;5060098;28;20534;-56
2023/10/29 02:07:52;;;;;;;13.65;1.95;;;;;;;15.67;95.12;98748.22;5079482;28;20045;-58
2023/10/29 02:10:19;;;;;;;9.18;1.80;;;;;;;15.66;94.91;98764.06;5070925;28;20051;-58
2023/10/29 02:12:48;;;;;;;8.45;1.65;;;;;;;15.81;94.12;98759.34;5067408;28;20087;-57
2023/10/29 02:15:16;;;;;;;10.00;2.20;;;;;;;15.87;92.99;98784.72;5064455;28;20048;-58
2023/10/29 02:17:43;;;;;;;14.18;2.33;;;;;;;15.83;93.10;98786.72;5072157;28;20435;-56
2023/10/29 02:20:12;;;;;;;10.45;1.80;;;;;;;15.85;90.82;98784.34;5072439;28;20045;-56
2023/10/29 02:22:40;;;;;;;12.35;2.28;;;;;;;15.68;91.33;98785.88;5072575;28;20487;-56
2023/10/29 02:25:08;;;;;;;11.15;2.05;;;;;;;15.64;91.76;98782.28;5071095;28;20048;-63
2023/10/29 02:27:35;;;;;;;13.98;2.53;;;;;;;15.83;91.04;98786.72;5072259;28;20060;-62
2023/10/29 02:30:02;;;;;;;19.10;2.53;;;;;;;16.02;89.83;98783.56;5070827;28;20049;-52
2023/10/29 02:32:30;;;;;;;11.60;2.28;;;;;;;16.03;89.66;98799.00;5072248;28;20052;-57
2023/10/29 02:34:57;;;;;;;13.05;2.17;;;;;;;16.17;88.63;98788.72;5072162;28;20636;-56
2023/10/29 02:37:24;;;;;;;14.95;2.47;;;;;;;15.80;89.77;98807.72;5071610;28;20044;-58
2023/10/29 02:39:52;;;;;;;12.32;2.15;;;;;;;15.61;91.28;98819.16;5082161;28;20048;-57
2023/10/29 02:42:19;;;;;;;14.32;1.98;;;;;;;15.61;91.85;98821.94;5067073;28;20055;-57
2023/10/29 02:44:47;;;;;;;12.55;2.00;;;;;;;15.66;91.37;98824.34;5052506;28;20045;-63
2023/10/29 02:47:15;;;;;;;22.52;3.30;;;;;;;15.32;92.55;98836.88;5051042;28;20056;-62
2023/10/29 02:49:42;;;;;;;12.93;2.05;;;;;;;15.42;92.92;98836.16;5051980;28;20052;-62
2023/10/29 02:52:10;;;;;;;15.23;2.50;;;;;;;15.38;93.10;98846.41;5068366;28;20075;-62
2023/10/29 02:54:37;;;;;;;14.45;2.20;;;;;;;15.58;91.74;98847.72;5071065;28;20063;-55
2023/10/29 02:57:05;;;;;;;12.68;2.70;;;;;;;15.51;91.62;98851.28;5073295;28;20052;-56
2023/10/29 02:59:32;;;;;;;19.13;2.50;;;;;;;15.28;92.80;98841.63;5080006;28;20055;-56
2023/10/29 03:02:00;;;;;;;12.82;2.40;;;;;;;15.26;92.77;98839.25;5071087;28;20051;-54
2023/10/29 03:04:28;;;;;;;13.63;1.92;;;;;;;15.37;92.00;98845.63;5067435;28;20048;-57
2023/10/29 03:06:56;;;;;;;18.73;2.65;;;;;;;15.61;90.91;98852.47;5050359;28;20053;-55
2023/10/29 03:09:24;;;;;;;12.63;2.10;;;;;;;15.45;89.79;98852.00;5058479;28;20532;-55
2023/10/29 03:11:51;;;;;;;15.30;2.35;;;;;;;15.29;90.22;98855.09;5070988;28;20044;-55
2023/10/29 03:14:18;;;;;;;12.75;2.25;;;;;;;15.18;90.05;98853.47;5070673;28;20036;-56
2023/10/29 03:16:45;;;;;;;18.52;2.53;;;;;;;15.43;89.68;98844.09;5070257;28;20542;-54
2023/10/29 03:19:13;;;;;;;13.57;2.75;;;;;;;15.78;87.73;98837.84;5069335;28;20060;-57
2023/10/29 03:21:40;;;;;;;12.05;2.22;;;;;;;15.48;87.80;98837.38;5066130;28;20064;-58
2023/10/29 03:24:07;;;;;;;13.52;2.20;;;;;;;15.40;87.08;98833.78;5065839;28;20059;-57
2023/10/29 03:26:35;;;;;;;13.55;2.38;;;;;;;15.33;87.25;98830.94;5071851;28;20056;-57
2023/10/29 03:29:02;;;;;;;21.67;2.63;;;;;;;15.37;87.54;98833.72;5071254;28;20048;-55
2023/10/29 03:31:30;;;;;;;13.27;2.83;;;;;;;15.32;86.79;98846.00;5071392;28;20435;-54
2023/10/29 03:33:57;;;;;;;17.30;3.38;;;;;;;15.38;85.92;98854.72;5071414;28;20048;-57
2023/10/29 03:36:24;;;;;;;15.63;2.30;;;;;;;15.28;85.64;98853.50;5071794;28;20056;-60
2023/10/29 03:38:52;;;;;;;18.15;3.17;;;;;;;15.23;85.77;98858.63;5027512;28;20383;-54
2023/10/29 03:41:22;;;;;;;12.75;2.30;;;;;;;15.16;85.40;98870.50;5068267;28;20051;-58
2023/10/29 03:43:49;;;;;;;18.98;2.90;;;;;;;15.23;84.85;98872.50;5070689;28;20049;-58
2023/10/29 03:46:18;;;;;;;13.55;2.80;;;;;;;15.35;85.32;98872.16;5053511;28;20052;-55
2023/10/29 03:48:45;;;;;;;18.35;3.08;;;;;;;15.19;84.85;98889.13;5068725;28;20049;-59
2023/10/29 03:51:14;;;;;;;21.70;3.63;;;;;;;15.10;84.23;98891.44;5053695;28;20045;-56
2023/10/29 03:53:41;;;;;;;17.90;2.72;;;;;;;15.12;84.84;98899.38;5071965;28;20056;-56
2023/10/29 03:56:09;;;;;;;24.00;2.65;;;;;;;15.08;84.62;98899.34;5070267;28;20055;-56
2023/10/29 03:58:36;;;;;;;18.40;3.03;;;;;;;15.02;85.25;98892.59;5069825;28;20059;-59
2023/10/29 04:01:04;;;;;;;22.30;2.97;;;;;;;15.00;85.67;98885.84;5072042;28;20044;-56
2023/10/29 04:03:31;;;;;;;17.75;3.28;;;;;;;15.09;85.84;98884.31;5071310;28;20052;-58
2023/10/29 04:05:58;;;;;;;19.15;2.95;;;;;;;14.95;85.57;98900.88;5071856;28;20049;-54
2023/10/29 04:08:26;;;;;;;20.13;3.03;;;;;;;15.02;85.89;98900.13;5071868;28;20540;-55
2023/10/29 04:10:53;;;;;;;17.75;2.97;;;;;;;15.31;84.78;98901.84;5071091;28;20044;-60
2023/10/29 04:13:20;;;;;;;25.85;3.72;;;;;;;15.17;84.12;98885.94;5071468;28;20064;-57
2023/10/29 04:15:48;;;;;;;25.60;3.60;;;;;;;15.12;84.76;98886.31;5070645;28;20045;-57
2023/10/29 04:18:16;;;;;;;21.75;2.80;;;;;;;15.13;84.24;98896.22;5071640;28;20052;-57
2023/10/29 04:20:43;;;;;;;17.27;3.45;;;;;;;15.07;84.64;98891.44;5057490;28;20056;-56
2023/10/29 04:23:11;;;;;;;16.00;2.92;;;;;;;15.24;83.16;98913.72;5075402;28;20048;-58
2023/10/29 04:25:38;;;;;;;21.00;3.67;;;;;;;15.16;83.50;98917.66;5074813;28;20068;-58
2023/10/29 04:28:06;;;;;;;24.10;3.67;;;;;;;15.27;82.31;98906.63;5073163;28;20045;-57
2023/10/29 04:30:33;;;;;;;17.63;3.15;;;;;;;14.60;84.89;98897.84;5072277;28;20615;-58
2023/10/29 04:33:00;;;;;;;16.85;2.97;;;;;;;14.66;85.90;98904.63;5074258;28;20079;-58
2023/10/29 04:35:29;;;;;;;28.63;3.85;;;;;;;14.71;85.89;98909.00;5072033;28;20053;-59
2023/10/29 04:37:56;;;;;;;17.30;2.83;;;;;;;14.62;86.43;98910.16;5045860;28;20062;-59
2023/10/29 04:40:23;;;;;;;16.92;2.75;;;;;;;14.60;87.07;98906.97;5083939;28;20106;-59
2023/10/29 04:42:51;;;;;;;22.80;3.60;;;;;;;14.65;87.10;98908.56;5075884;28;20052;-57
2023/10/29 04:45:18;;;;;;;19.73;3.42;;;;;;;14.67;87.34;98897.91;5074291;28;20073;-57
2023/10/29 04:47:45;;;;;;;19.05;3.78;;;;;;;14.54;87.28;98902.13;5074177;28;20376;-55
2023/10/29 04:50:12;;;;;;;19.35;3.40;;;;;;;14.52;87.99;98882.34;5055945;28;20052;-57
2023/10/29 04:52:40;;;;;;;20.38;2.90;;;;;;;14.48;89.14;98884.28;5036473;28;20053;-57
2023/10/29 04:55:08;;;;;;;25.65;3.30;;;;;;;14.59;88.68;98874.88;5069980;28;20064;-57
2023/10/29 04:57:36;;;;;;;20.58;3.72;;;;;;;14.51;88.40;98875.19;5074153;28;20060;-58
2023/10/29 05:00:05;;;;;;;22.25;4.15;;;;;;;14.22;89.73;98874.16;5054444;28;20056;-56
2023/10/29 05:02:32;;;;;;;22.85;3.97;;;;;;;14.21;91.00;98880.84;5058660;28;20502;-57
2023/10/29 05:05:00;;;;;;;19.85;3.83;;;;;;;14.38;90.52;98885.00;5072976;28;20060;-56
2023/10/29 05:07:27;;;;;;;22.45;3.70;;;;;;;14.47;89.84;98886.25;5074339;28;20048;-57
2023/10/29 05:09:55;;;;;;;28.15;3.95;;;;;;;14.45;90.00;98896.16;5055806;28;20048;-57
2023/10/29 05:12:22;;;;;;;26.55;4.03;;;;;;;14.32;90.16;98887.31;5074265;28;20055;-58
2023/10/29 05:14:52;;;;;;;22.55;3.90;;;;;;;14.42;90.37;98886.63;5074501;28;20053;-57
2023/10/29 05:17:20;;;;;;;23.98;3.92;;;;;;;14.28;90.43;98882.91;5073897;28;20535;-57
2023/10/29 05:19:47;;;;;;;24.98;4.38;;;;;;;14.27;91.04;98881.34;5074052;28;20064;-54
2023/10/29 05:22:14;;;;;;;23.17;3.50;;;;;;;14.22;91.19;98873.34;5073035;28;20047;-55
2023/10/29 05:24:42;;;;;;;23.33;4.03;;;;;;;14.21;90.86;98883.63;5074047;28;20053;-58
2023/10/29 05:27:10;;;;;;;25.15;3.25;;;;;;;14.23;91.22;98883.25;5073891;28;20055;-58
2023/10/29 05:29:37;;;;;;;27.17;4.05;;;;;;;14.31;91.46;98882.94;5069843;28;20047;-58
2023/10/29 05:32:05;;;;;;;19.70;3.50;;;;;;;14.28;90.88;98877.38;5073777;28;20041;-59
2023/10/29 05:34:33;;;;;;;25.90;3.78;;;;;;;14.22;91.36;98868.63;5072366;28;20063;-56
2023/10/29 05:37:00;;;;;;;20.25;3.28;;;;;;;14.18;92.38;98883.59;5074118;28;20581;-58
2023/10/29 05:39:28;;;;;;;20.52;3.45;;;;;;;14.09;92.91;98892.22;5079398;28;20044;-55
2023/10/29 05:41:55;;;;;;;22.38;3.47;;;;;;;14.03;93.87;98899.28;5073610;28;20639;-57
2023/10/29 05:44:22;;;;;;;21.08;3.40;;;;;;;14.05;94.18;98893.38;5073859;28;20055;-56
2023/10/29 05:46:50;;;;;;;25.67;4.60;;;;;;;13.94;94.45;98901.56;5073793;28;20060;-57
2023/10/29 05:49:17;;;;;;;27.42;3.45;;;;;;;14.07;95.02;98902.09;5055612;28;20053;-56
2023/10/29 05:51:44;;;;;;;22.25;3.28;;;;;;;13.98;95.77;98905.13;5073543;28;20045;-56
2023/10/29 05:54:12;;;;;;;25.30;3.63;;;;;;;13.92;96.53;98903.09;5073885;28;20086;-59
2023/10/29 05:56:39;;;;;;;25.25;3.40;;;;;;;13.86;97.54;98901.88;5072305;28;20059;-58
2023/10/29 05:59:06;;;;;;;16.95;3.03;;;;;;;13.87;97.88;98900.69;5073860;28;20043;-61
2023/10/29 06:01:34;;;;;;;20.13;3.28;;;;;;;13.82;98.10;98887.19;5068825;28;20056;-57
2023/10/29 06:04:01;;;;;;;22.45;3.35;;;;;;;13.85;98.58;98892.75;5061411;28;20044;-61
2023/10/29 06:06:28;;;;;;;22.52;3.65;;;;;;;14.02;98.43;98894.91;5060049;28;20056;-59
2023/10/29 06:08:56;;;;;;;16.80;2.58;;;;;;;13.79;97.97;98912.88;5072141;28;20044;-54
2023/10/29 06:11:30;;;;;;;20.27;3.42;;;;;;;13.84;98.85;98923.59;5072284;28;20053;-55
2023/10/29 06:13:57;;;;;;;17.73;2.70;;;;;;;13.88;98.62;98932.75;5055760;28;20044;-57
2023/10/29 06:16:25;;;;;;;22.95;3.35;;;;;;;13.80;99.27;98929.09;5072597;28;20044;-58
2023/10/29 06:18:52;;;;;;;16.25;3.15;;;;;;;13.75;100.00;98925.84;5067619;28;20056;-56
2023/10/29 06:21:20;;;;;;;21.40;3.55;;;;;;;13.47;100.00;98924.34;5070317;28;20064;-59
2023/10/29 06:23:48;;;;;;;22.50;3.22;;;;;;;13.43;100.00;98926.25;5071157;28;20052;-54
2023/10/29 06:26:16;;;;;;;24.25;3.30;;;;;;;13.53;100.00;98922.81;5071385;28;20044;-57
2023/10/29 06:28:43;;;;;;;18.40;3.45;;;;;;;13.61;100.00;98925.69;5070342;28;20523;-58
2023/10/29 06:31:10;;;;;;;17.83;3.67;;;;;;;13.73;100.00;98931.75;5070827;28;20041;-56
2023/10/29 06:33:39;;;;;;;24.40;3.15;;;;;;;13.60;100.00;98937.94;5072152;28;20048;-58
2023/10/29 06:36:07;;;;;;;17.42;3.40;;;;;;;13.54;100.00;98932.72;5072156;28;20162;-59
2023/10/29 06:38:34;;;;;;;19.73;2.78;;;;;;;13.62;100.00;98936.38;5074647;28;20048;-59
2023/10/29 06:41:02;;;;;;;22.30;3.63;;;;;;;13.48;100.00;98936.19;5053847;28;20056;-58
2023/10/29 06:43:29;;;;;;;24.27;3.45;;;;;;;13.63;100.00;98943.50;5070348;28;20053;-58
2023/10/29 06:45:57;;;;;;;17.90;2.65;;;;;;;13.53;100.00;98930.31;5071266;28;20547;-60
2023/10/29 06:48:24;;;;;;;19.80;2.75;;;;;;;13.63;100.00;98937.97;5050574;28;20048;-57
2023/10/29 06:50:52;;;;;;;18.35;2.97;;;;;;;13.73;100.00;98944.78;5069831;28;20067;-58
2023/10/29 06:53:19;;;;;;;19.83;3.10;;;;;;;13.72;100.00;98955.06;5071536;28;20037;-60
2023/10/29 06:55:47;;;;;;;22.60;4.15;;;;;;;13.70;100.00;98967.69;5090498;28;20538;-60
2023/10/29 06:58:14;;;;;;;21.20;3.60;;;;;;;13.68;100.00;98964.50;5080836;28;20053;-54
2023/10/29 07:00:41;;;;;;;17.58;3.53;;;;;;;13.74;100.00;98960.25;5071621;28;20056;-55
2023/10/29 07:03:09;;;;;;;23.35;3.17;;;;;;;13.85;100.00;98969.44;5070615;28;20451;-58
2023/10/29 07:05:36;;;;;;;18.70;2.75;;;;;;;13.64;100.00;98970.00;5071644;28;20546;-56
2023/10/29 07:08:04;;;;;;;19.88;4.03;;;;;;;13.78;100.00;98972.13;5070306;28;20060;-59
2023/10/29 07:10:31;;;;;;;19.77;3.50;;;;;;;13.61;100.00;98987.34;5071521;28;20052;-57
2023/10/29 07:12:59;;;;;;;20.30;3.83;;;;;;;13.63;100.00;98981.44;5071812;28;20060;-58
2023/10/29 07:15:26;;;;;;;20.10;3.83;;;;;;;13.50;100.00;98973.38;5071008;28;20048;-57
2023/10/29 07:17:53;;;;;;;20.88;4.43;;;;;;;13.63;100.00;98973.94;5072195;28;20552;-56
2023/10/29 07:20:21;;;;;;;18.92;3.58;;;;;;;13.80;100.00;98964.25;5071890;28;20059;-59
2023/10/29 07:22:48;;;;;;;19.15;2.80;;;;;;;13.82;100.00;98951.66;5072304;28;20052;-57
2023/10/29 07:25:15;;;;;;;17.10;3.38;;;;;;;13.78;100.00;98964.63;5070561;28;20048;-59
2023/10/29 07:27:42;;;;;;;17.42;2.63;;;;;;;13.65;100.00;98948.66;5071891;28;20737;-58
2023/10/29 07:30:10;;;;;;;17.88;2.08;;;;;;;13.80;100.00;98933.81;5070013;28;20059;-58
2023/10/29 07:32:37;;;;;;;21.40;3.10;;;;;;;13.68;100.00;98945.13;5072054;28;20063;-58
2023/10/29 07:35:05;;;;;;;20.30;3.13;;;;;;;13.50;100.00;98934.66;5053781;28;20052;-58
2023/10/29 07:37:32;;;;;;;16.95;3.17;;;;;;;13.71;100.00;98939.66;5070527;28;20055;-58
2023/10/29 07:40:00;;;;;;;14.50;2.70;;;;;;;13.92;100.00;98950.97;5084308;28;20055;-60
2023/10/29 07:42:28;;;;;;;15.23;2.78;;;;;;;14.02;100.00;98939.19;5092161;28;20558;-57
2023/10/29 07:44:55;;;;;;;24.90;3.83;;;;;;;14.08;100.00;98925.81;5092321;28;20048;-58
2023/10/29 07:47:22;;;;;;;19.83;3.50;;;;;;;14.06;100.00;98926.22;5092096;28;20423;-57
2023/10/29 07:49:50;;;;;;;13.93;2.88;;;;;;;14.10;100.00;98929.81;5074953;28;20134;-56
2023/10/29 07:52:17;;;;;;;19.23;3.22;;;;;;;14.20;100.00;98925.53;5070035;28;20458;-59
2023/10/29 07:54:44;;;;;;;15.10;3.80;;;;;;;14.03;100.00;98929.75;5074261;28;20053;-58
2023/10/29 07:57:12;;;;;;;21.10;2.85;;;;;;;14.18;100.00;98938.97;5073983;28;20791;-57
2023/10/29 07:59:39;;;;;;;23.27;3.42;;;;;;;14.07;100.00;98927.00;5076019;28;20072;-56
2023/10/29 08:02:06;;;;;;;15.80;2.50;;;;;;;14.16;100.00;98936.59;5075377;28;20037;-56
2023/10/29 08:04:33;;;;;;;10.88;2.35;;;;;;;14.14;100.00;98929.84;5074483;28;20064;-58
2023/10/29 08:07:01;;;;;;;21.92;3.40;;;;;;;14.23;100.00;98936.66;5075556;28;20048;-58
2023/10/29 08:09:28;;;;;;;14.48;2.33;;;;;;;14.33;100.00;98943.53;5075608;28;20048;-56
2023/10/29 08:11:56;;;;;;;18.17;2.95;;;;;;;14.21;100.00;98944.53;5075373;28;20063;-57
2023/10/29 08:14:23;;;;;;;16.73;3.13;;;;;;;14.23;100.00;98942.19;5074623;28;20396;-58
2023/10/29 08:16:50;;;;;;;13.73;2.70;;;;;;;14.36;100.00;98943.56;5039972;28;20048;-59
2023/10/29 08:19:18;;;;;;;17.33;2.58;;;;;;;14.39;100.00;98951.09;5074666;28;20056;-62
2023/10/29 08:21:45;;;;;;;19.63;3.15;;;;;;;14.49;100.00;98955.94;5073503;28;20052;-58
2023/10/29 08:24:12;;;;;;;14.20;2.40;;;;;;;14.51;100.00;98950.81;5073424;28;20060;-56
2023/10/29 08:26:39;;;;;;;14.63;2.95;;;;;;;14.58;100.00;98947.31;5072115;28;20037;-61
2023/10/29 08:29:07;;;;;;;11.00;2.95;;;;;;;14.40;100.00;98947.13;5073498;28;20052;-58
2023/10/29 08:31:35;;;;;;;11.75;2.67;;;;;;;14.49;100.00;98961.47;5073527;28;20064;-59
2023/10/29 08:34:03;;;;;;;14.38;2.53;;;;;;;14.49;100.00;98949.59;5074745;28;20040;-56
2023/10/29 08:36:31;;;;;;;10.98;2.70;;;;;;;14.57;100.00;98945.72;5070309;28;20048;-55
2023/10/29 08:38:58;;;;;;;13.68;1.90;;;;;;;14.57;100.00;98956.81;5060600;28;20058;-57
2023/10/29 08:41:26;;;;;;;12.30;2.47;;;;;;;14.70;100.00;98966.41;5069864;28;20052;-59
2023/10/29 08:43:53;;;;;;;10.93;2.38;;;;;;;14.48;100.00;98970.97;5075093;28;20044;-58
2023/10/29 08:46:20;;;;;;;10.77;2.95;;;;;;;14.59;100.00;98969.09;5075078;28;20055;-59
2023/10/29 08:48:48;;;;;;;8.77;2.03;;;;;;;14.56;100.00;98980.94;5067810;28;20048;-59
2023/10/29 08:51:15;;;;;;;8.50;2.08;;;;;;;14.57;100.00;98974.19;5062195;28;20450;-56
2023/10/29 08:53:43;;;;;;;6.63;1.70;;;;;;;14.71;100.00;98964.44;5073527;28;20059;-57
2023/10/29 08:56:10;;;;;;;10.75;2.00;;;;;;;14.74;100.00;98931.22;5074180;28;20075;-57
2023/10/29 08:58:38;;;;;;;9.38;2.00;;;;;;;14.73;100.00;98945.47;5073258;28;20059;-54
2023/10/29 09:01:08;;;;;;;9.15;1.95;;;;;;;14.96;100.00;98932.94;5072723;28;20033;-56
2023/10/29 09:03:36;;;;;;;7.75;1.50;;;;;;;15.00;100.00;98936.56;5071383;28;20048;-56
2023/10/29 09:06:04;;;;;;;6.82;1.70;;;;;;;15.10;100.00;98933.03;5064138;28;20554;-55
2023/10/29 09:08:36;;;;;;;7.82;1.60;;;;;;;15.03;100.00;98941.31;5073790;28;20063;-58
2023/10/29 09:11:03;;;;;;;8.95;1.80;;;;;;;15.09;100.00;98936.22;5073125;28;20052;-58
2023/10/29 09:13:31;;;;;;;7.30;1.73;;;;;;;15.13;100.00;98918.41;5071492;28;20048;-57
2023/10/29 09:15:59;;;;;;;7.95;1.65;;;;;;;15.42;100.00;98924.94;5067033;28;20055;-60
2023/10/29 09:18:27;;;;;;;8.43;1.38;;;;;;;14.96;100.00;98916.31;5071641;28;20049;-60
2023/10/29 09:20:54;;;;;;;8.82;2.05;;;;;;;15.27;100.00;98907.38;5071776;28;20052;-58
2023/10/29 09:23:23;;;;;;;5.15;1.40;;;;;;;15.32;100.00;98898.72;5071340;28;20048;-59
2023/10/29 09:25:50;;;;;;;8.27;1.75;;;;;;;15.03;100.00;98919.13;5064840;28;20048;-58
2023/10/29 09:28:17;;;;;;;5.63;1.45;;;;;;;15.08;100.00;98932.63;5071475;28;20045;-58
2023/10/29 09:30:44;;;;;;;6.57;1.58;;;;;;;14.77;100.00;98894.41;5070031;28;20060;-57
2023/10/29 09:33:13;;;;;;;8.13;2.33;;;;;;;14.92;100.00;98900.84;5070546;28;20060;-58
2023/10/29 09:35:41;;;;;;;6.68;1.42;;;;;;;14.80;100.00;98910.28;5073307;28;20079;-60
2023/10/29 09:38:08;;;;;;;6.70;1.73;;;;;;;14.75;100.00;98916.16;5070488;28;20064;-58
2023/10/29 09:40:36;;;;;;;9.40;1.67;;;;;;;14.85;100.00;98945.16;5071935;28;20044;-59
2023/10/29 09:43:04;;;;;;;8.73;1.58;;;;;;;14.88;100.00;98936.06;5071690;28;20040;-58
2023/10/29 09:45:35;;;;;;;9.63;1.50;;;;;;;14.89;100.00;98943.22;5072074;28;20467;-57
2023/10/29 09:48:02;;;;;;;5.32;1.33;;;;;;;15.06;100.00;98940.56;5072505;28;20419;-59
2023/10/29 09:50:33;;;;;;;4.75;1.13;;;;;;;15.07;100.00;98946.88;5072533;28;20067;-53
2023/10/29 09:53:03;;;;;;;8.15;1.60;;;;;;;14.91;100.00;98949.94;5072209;28;20040;-55
2023/10/29 09:55:32;;;;;;;6.05;1.30;;;;;;;14.96;100.00;98951.59;5072922;28;20411;-59
2023/10/29 09:57:59;;;;;;;4.28;1.35;;;;;;;15.22;100.00;98931.94;5076571;28;20056;-57
2023/10/29 10:00:27;;;;;;;5.05;1.17;;;;;;;15.09;100.00;98922.34;5070647;28;20036;-58
2023/10/29 10:02:57;;;;;;;9.50;1.52;;;;;;;14.97;100.00;98919.88;5069752;28;20136;-58
2023/10/29 10:05:27;;;;;;;5.88;1.55;;;;;;;15.17;100.00;98910.91;5073711;28;20044;-58
2023/10/29 10:07:55;;;;;;;6.32;1.35;;;;;;;15.20;100.00;98915.66;5069597;28;20048;-57
2023/10/29 10:10:42;;;;;;;4.65;1.55;;;;;;;15.21;100.00;98922.03;5069282;28;20556;-53
2023/10/29 10:13:10;;;;;;;6.25;1.30;;;;;;;15.20;100.00;98928.75;5070253;28;20094;-57
2023/10/29 10:15:38;;;;;;;8.13;1.88;;;;;;;15.41;100.00;98943.56;5053064;28;20065;-58
2023/10/29 10:18:05;;;;;;;6.60;1.30;;;;;;;15.57;100.00;98932.94;5070229;28;20400;-59
2023/10/29 10:20:35;;;;;;;6.10;1.20;;;;;;;15.74;99.24;98942.53;5054628;28;20569;-58
2023/10/29 10:23:05;;;;;;;5.07;1.30;;;;;;;15.79;97.77;98939.38;5070389;28;20048;-58
2023/10/29 10:25:34;;;;;;;6.15;1.25;;;;;;;15.76;96.65;98940.94;5070251;28;20067;-58
2023/10/29 10:28:03;;;;;;;3.90;0.90;;;;;;;15.87;96.11;98934.63;5070949;28;20059;-55
2023/10/29 10:30:38;;;;;;;5.97;1.45;;;;;;;15.87;95.16;98929.09;5067480;28;20053;-63
2023/10/29 10:33:15;;;;;;;7.78;1.88;;;;;;;15.94;95.72;98916.03;5067797;28;20710;-62
2023/10/29 10:35:45;;;;;;;6.00;1.50;;;;;;;15.94;94.73;98916.03;5070243;28;20056;-63
2023/10/29 10:38:14;;;;;;;5.40;1.05;;;;;;;16.09;93.42;98912.09;5072482;28;20047;-63
2023/10/29 10:40:42;;;;;;;6.70;1.48;;;;;;;15.84;93.78;98902.09;5071741;28;20056;-64
2023/10/29 10:43:09;;;;;;;6.80;1.10;;;;;;;16.11;93.28;98911.72;5071528;28;20060;-58
2023/10/29 10:45:37;;;;;;;5.32;1.10;;;;;;;16.16;92.15;98906.53;5069690;28;20757;-56
2023/10/29 10:48:05;;;;;;;6.15;1.25;;;;;;;16.21;92.31;98913.72;5070058;28;20044;-56
2023/10/29 10:50:34;;;;;;;7.10;1.35;;;;;;;16.30;90.42;98916.91;5070336;28;20052;-57
2023/10/29 10:53:03;;;;;;;5.85;1.45;;;;;;;16.53;89.26;98911.78;5050144;28;20470;-58
2023/10/29 10:55:30;;;;;;;7.80;1.05;;;;;;;16.70;88.13;98900.66;5066564;28;20048;-58
2023/10/29 10:58:18;;;;;;;8.35;1.30;;;;;;;16.54;87.65;98897.50;5055624;28;20047;-63
2023/10/29 11:00:49;;;;;;;3.88;1.17;;;;;;;16.58;86.39;98906.63;5066815;28;20045;-63
2023/10/29 11:03:17;;;;;;;5.68;1.30;;;;;;;16.64;86.78;98913.38;5067475;28;20051;-63
2023/10/29 11:05:59;;;;;;;4.85;0.98;;;;;;;16.35;87.88;98897.84;5070656;28;20056;-59
2023/10/29 11:08:26;;;;;;;5.82;1.13;;;;;;;16.61;86.86;98910.59;5068980;28;20070;-56
2023/10/29 11:10:54;;;;;;;4.10;0.88;;;;;;;16.75;85.92;98897.47;5069281;28;20071;-53
2023/10/29 11:13:21;;;;;;;6.22;1.30;;;;;;;16.71;84.91;98895.91;5052346;28;20067;-63
2023/10/29 11:15:49;;;;;;;5.88;1.40;;;;;;;16.67;85.22;98917.34;5068836;28;20052;-55
2023/10/29 11:18:31;;;;;;;7.75;1.40;;;;;;;16.88;84.04;98932.03;5069519;28;20053;-56
2023/10/29 11:21:04;;;;;;;4.70;1.15;;;;;;;17.00;82.22;98930.81;5068371;28;20045;-57
2023/10/29 11:23:33;;;;;;;8.82;1.98;;;;;;;16.99;82.46;98929.25;5071225;28;20147;-56
2023/10/29 11:26:27;;;;;;;5.18;0.82;;;;;;;16.92;81.11;98940.38;5072059;28;20045;-57
2023/10/29 11:28:55;;;;;;;6.30;1.55;;;;;;;16.69;82.51;98926.88;5071243;28;20044;-57